Time;durP1;ratioP1;P1;durP2;ratioP2;P2;SDS_P1;SDS_P2;PMS_P1;PMS_P2;Temp;Humidity;BMP_temperature;BMP_pressure;BME280_temperature;BME280_humidity;BME280_pressure;Samples;Min_cycle;Max_cycle;Signal;HPM_P1;HPM_P2
2022/07/16 00:02:38;;;;;;;;;4.00;4.00;;;;;22.77;36.91;101707.06;5078522;27;45341;-62
2022/07/16 00:05:04;;;;;;;;;3.00;3.00;;;;;22.71;37.34;101708.72;5076538;28;46768;-62
2022/07/16 00:07:30;;;;;;;;;4.67;4.33;;;;;22.66;37.23;101716.63;5076925;27;45346;-64
2022/07/16 00:09:56;;;;;;;;;3.00;3.00;;;;;22.63;37.06;101706.19;5077660;28;45548;-63
2022/07/16 00:12:21;;;;;;;;;4.67;3.67;;;;;22.64;37.50;101715.16;5079101;28;45870;-64
2022/07/16 00:14:47;;;;;;;;;2.00;2.00;;;;;22.66;36.99;101722.03;5078714;28;45980;-63
2022/07/16 00:17:12;;;;;;;;;4.00;4.00;;;;;22.61;37.13;101708.22;5078775;27;45281;-62
2022/07/16 00:19:37;;;;;;;;;6.00;6.00;;;;;22.65;37.21;101722.25;5060632;28;45346;-63
2022/07/16 00:22:03;;;;;;;;;2.00;2.00;;;;;22.57;37.36;101698.84;5078785;28;45463;-62
2022/07/16 00:24:28;;;;;;;;;3.33;2.00;;;;;22.49;37.48;101700.88;5058689;28;47626;-62
2022/07/16 00:26:54;;;;;;;;;3.00;3.00;;;;;22.40;37.41;101676.63;5074489;28;45437;-62
2022/07/16 00:29:21;;;;;;;;;4.00;2.67;;;;;22.60;37.32;101722.81;5076124;27;45467;-62
2022/07/16 00:31:48;;;;;;;;;5.00;5.00;;;;;22.58;37.62;101716.75;5076685;28;45339;-62
2022/07/16 00:34:14;;;;;;;;;3.00;3.00;;;;;22.61;37.73;101719.06;5058126;28;47279;-62
2022/07/16 00:36:39;;;;;;;;;3.67;3.67;;;;;22.57;38.14;101715.09;5076363;27;45370;-62
2022/07/16 00:39:06;;;;;;;;;4.67;4.00;;;;;22.48;37.83;101719.00;5077059;27;45479;-63
2022/07/16 00:41:33;;;;;;;;;4.33;3.00;;;;;22.40;38.25;101716.44;5078482;27;45509;-62
2022/07/16 00:44:05;;;;;;;;;4.33;4.33;;;;;22.26;38.28;101704.69;5078250;27;46493;-63
2022/07/16 00:46:31;;;;;;;;;4.67;3.67;;;;;22.31;38.11;101717.63;5077997;28;45203;-64
2022/07/16 00:48:58;;;;;;;;;3.00;3.00;;;;;21.95;38.72;101669.81;5078341;27;45396;-63
2022/07/16 00:51:25;;;;;;;;;6.00;5.00;;;;;22.25;38.36;101718.44;5077350;28;45403;-62
2022/07/16 00:53:52;;;;;;;;;3.00;3.00;;;;;22.32;38.13;101717.44;5077999;28;46774;-63
2022/07/16 00:56:18;;;;;;;;;3.33;3.00;;;;;21.83;38.01;101628.09;5078085;28;45660;-63
2022/07/16 00:58:46;;;;;;;;;2.33;2.33;;;;;22.37;38.44;101720.38;5078252;27;45252;-64
2022/07/16 01:01:13;;;;;;;;;4.67;3.67;;;;;22.34;38.07;101717.25;5078180;27;45569;-61
2022/07/16 01:03:40;;;;;;;;;2.33;2.00;;;;;22.12;38.45;101686.66;5077863;27;46120;-63
2022/07/16 01:06:07;;;;;;;;;3.67;3.00;;;;;21.85;38.40;101642.28;5077748;28;45411;-62
2022/07/16 01:08:35;;;;;;;;;4.00;4.00;;;;;22.14;38.71;101703.56;5078043;28;45304;-63
2022/07/16 01:11:04;;;;;;;;;4.00;4.00;;;;;22.15;38.61;101718.75;5078271;28;45803;-63
2022/07/16 01:13:30;;;;;;;;;5.00;4.00;;;;;22.07;38.72;101700.81;5077809;28;45665;-64
2022/07/16 01:15:55;;;;;;;;;5.33;3.33;;;;;22.16;38.79;101715.03;5077753;27;45508;-63
2022/07/16 01:18:21;;;;;;;;;0.00;0.00;;;;;22.17;38.65;101716.69;5078048;27;45493;-63
2022/07/16 01:20:46;;;;;;;;;5.00;4.00;;;;;22.19;38.84;101733.59;5077805;28;45478;-62
2022/07/16 01:23:19;;;;;;;;;4.00;4.00;;;;;22.17;38.62;101720.25;5059413;28;46588;-62
2022/07/16 01:25:45;;;;;;;;;3.67;3.00;;;;;22.13;38.75;101723.53;5077706;27;45442;-62
2022/07/16 01:28:11;;;;;;;;;5.00;5.00;;;;;22.05;38.80;101702.03;5077454;28;45294;-62
2022/07/16 01:30:36;;;;;;;;;3.67;3.67;;;;;21.97;38.82;101685.88;5059551;28;45251;-61
2022/07/16 01:33:18;;;;;;;;;3.00;3.00;;;;;22.16;38.89;101726.69;5077259;28;45984;-62
2022/07/16 01:35:43;;;;;;;;;7.67;6.67;;;;;22.07;38.96;101706.22;5077107;27;45426;-62
2022/07/16 01:38:10;;;;;;;;;3.00;3.00;;;;;22.12;39.07;101720.00;5076970;28;45303;-62
2022/07/16 01:40:36;;;;;;;;;4.33;4.33;;;;;22.03;39.25;101715.75;5077739;28;45214;-62
2022/07/16 01:43:01;;;;;;;;;4.00;4.00;;;;;22.03;38.98;101715.75;5077188;28;46879;-61
2022/07/16 01:45:27;;;;;;;;;6.00;3.00;;;;;22.01;39.12;101723.19;5077190;27;45356;-62
2022/07/16 01:47:53;;;;;;;;;3.33;3.33;;;;;21.96;38.98;101709.41;5077502;28;45502;-62
2022/07/16 01:50:19;;;;;;;;;4.00;4.00;;;;;21.87;39.31;101699.75;5077630;28;45426;-63
2022/07/16 01:52:44;;;;;;;;;5.67;4.00;;;;;21.96;39.39;101722.94;5058883;28;46479;-62
2022/07/16 01:55:10;;;;;;;;;6.00;5.00;;;;;21.80;39.42;101693.44;5077435;27;45238;-65
2022/07/16 01:57:35;;;;;;;;;4.00;3.00;;;;;21.76;39.23;101711.09;5077389;28;45525;-62
2022/07/16 02:00:00;;;;;;;;;5.67;4.67;;;;;21.80;39.63;101712.38;5077628;28;45447;-62
2022/07/16 02:02:26;;;;;;;;;3.33;3.33;;;;;21.73;39.57;101706.09;5076443;27;46697;-61
2022/07/16 02:04:51;;;;;;;;;4.00;4.00;;;;;21.67;39.23;101683.34;5075627;28;45610;-62
2022/07/16 02:07:17;;;;;;;;;3.33;3.33;;;;;21.80;39.41;101709.69;5075492;28;46055;-63
2022/07/16 02:09:43;;;;;;;;;5.33;5.33;;;;;21.76;39.66;101716.50;5075738;27;45852;-62
2022/07/16 02:12:08;;;;;;;;;5.00;4.00;;;;;21.71;40.12;101718.97;5076232;28;45979;-63
2022/07/16 02:14:34;;;;;;;;;6.00;6.00;;;;;21.63;40.19;101713.69;5077065;28;45446;-63
2022/07/16 02:16:59;;;;;;;;;6.00;5.00;;;;;21.60;40.32;101709.50;5077138;28;45879;-62
2022/07/16 02:19:25;;;;;;;;;4.67;4.67;;;;;20.65;40.23;101555.56;5077048;28;45454;-63
2022/07/16 02:21:50;;;;;;;;;7.00;5.67;;;;;21.61;40.11;101704.91;5076767;28;46500;-62
2022/07/16 02:24:16;;;;;;;;;5.33;5.33;;;;;21.45;40.48;101690.63;5076992;28;45443;-63
2022/07/16 02:26:41;;;;;;;;;8.00;6.33;;;;;21.07;40.11;101627.78;5076884;28;45364;-63
2022/07/16 02:29:07;;;;;;;;;7.00;5.00;;;;;21.61;40.10;101721.97;5077345;28;45412;-62
2022/07/16 02:31:32;;;;;;;;;7.00;6.00;;;;;21.17;40.24;101649.06;5076718;27;47269;-61
2022/07/16 02:33:57;;;;;;;;;6.67;4.00;;;;;21.55;40.27;101718.19;5076908;27;45309;-61
2022/07/16 02:36:23;;;;;;;;;5.33;5.33;;;;;21.55;40.31;101707.38;5076725;27;45491;-62
2022/07/16 02:38:48;;;;;;;;;5.00;5.00;;;;;21.61;40.45;101721.16;5076963;27;45249;-62
2022/07/16 02:41:13;;;;;;;;;6.00;6.00;;;;;21.64;40.14;101728.91;5076308;28;47368;-62
2022/07/16 02:43:39;;;;;;;;;2.00;1.00;;;;;21.62;40.19;101729.06;5076459;28;45379;-61
2022/07/16 02:46:04;;;;;;;;;5.00;3.67;;;;;21.59;40.00;101728.63;5058186;28;45271;-61
2022/07/16 02:48:29;;;;;;;;;4.00;4.00;;;;;21.40;40.33;101703.03;5076788;28;45208;-61
2022/07/16 02:50:55;;;;;;;;;6.33;5.33;;;;;21.45;40.82;101716.84;5079888;28;46244;-61
2022/07/16 02:53:20;;;;;;;;;6.67;5.67;;;;;21.41;40.73;101716.38;5080072;28;45477;-63
2022/07/16 02:55:46;;;;;;;;;4.67;4.67;;;;;21.48;40.46;101720.00;5062227;27;45917;-63
2022/07/16 02:58:11;;;;;;;;;5.00;4.00;;;;;21.47;40.47;101718.31;5080264;28;45270;-63
2022/07/16 03:00:36;;;;;;;;;3.00;3.00;;;;;21.07;40.68;101662.09;5079844;28;46431;-61
2022/07/16 03:03:02;;;;;;;;;5.33;4.33;;;;;21.27;40.66;101692.09;5079841;28;45277;-63
2022/07/16 03:05:28;;;;;;;;;5.00;5.00;;;;;21.43;40.72;101717.03;5080014;27;45369;-63
2022/07/16 03:07:53;;;;;;;;;6.00;6.00;;;;;21.33;40.96;101713.78;5079869;28;45238;-62
2022/07/16 03:10:19;;;;;;;;;4.67;4.67;;;;;21.30;40.79;101708.75;5079565;27;46190;-62
2022/07/16 03:12:45;;;;;;;;;4.00;4.00;;;;;21.25;40.97;101712.06;5061546;28;45366;-62
2022/07/16 03:15:12;;;;;;;;;5.00;5.00;;;;;21.17;40.98;101697.75;5079969;28;45478;-62
2022/07/16 03:17:38;;;;;;;;;5.67;4.67;;;;;21.23;40.50;101691.59;5079920;27;45186;-62
2022/07/16 03:20:04;;;;;;;;;6.00;4.33;;;;;21.36;40.47;101723.38;5079476;27;46551;-63
2022/07/16 03:22:30;;;;;;;;;6.00;5.67;;;;;21.31;40.83;101707.75;5079681;27;45384;-63
2022/07/16 03:24:55;;;;;;;;;5.00;5.00;;;;;21.40;40.52;101720.09;5079864;27;45343;-63
2022/07/16 03:27:21;;;;;;;;;4.00;4.00;;;;;21.30;40.51;101692.53;5079702;27;45252;-62
2022/07/16 03:29:46;;;;;;;;;6.33;5.00;;;;;21.35;40.45;101700.91;5079392;28;45664;-62
2022/07/16 03:32:11;;;;;;;;;4.67;4.00;;;;;21.50;40.52;101717.94;5079422;27;45508;-63
2022/07/16 03:34:36;;;;;;;;;4.00;4.00;;;;;21.55;40.37;101720.91;5079589;28;45289;-62
2022/07/16 03:37:02;;;;;;;;;2.00;2.00;;;;;21.40;40.17;101689.50;5079747;28;45229;-63
2022/07/16 03:39:27;;;;;;;;;5.33;5.33;;;;;21.56;40.34;101729.84;5079257;28;46483;-63
2022/07/16 03:41:53;;;;;;;;;5.00;5.00;;;;;21.44;40.15;101702.47;5060931;27;45980;-62
2022/07/16 03:44:18;;;;;;;;;3.00;3.00;;;;;21.56;40.29;101736.09;5079442;28;45609;-63
2022/07/16 03:46:44;;;;;;;;;3.00;3.00;;;;;21.36;40.30;101697.16;5079052;27;45573;-64
2022/07/16 03:49:09;;;;;;;;;5.67;5.67;;;;;21.55;40.76;101729.00;5078997;28;47051;-66
2022/07/16 03:51:35;;;;;;;;;5.67;4.67;;;;;21.58;40.42;101726.94;5079113;28;45294;-62
2022/07/16 03:54:01;;;;;;;;;4.33;4.33;;;;;21.10;40.37;101651.72;5079199;27;45442;-62
2022/07/16 03:56:27;;;;;;;;;4.33;4.33;;;;;21.59;40.19;101739.44;5079436;28;45448;-62
2022/07/16 03:58:53;;;;;;;;;4.67;4.67;;;;;20.85;40.32;101609.84;5078870;27;45929;-63
2022/07/16 04:01:19;;;;;;;;;4.00;4.00;;;;;20.94;40.43;101628.44;5078581;28;45239;-61
2022/07/16 04:03:44;;;;;;;;;4.00;4.00;;;;;21.50;40.25;101734.16;5079004;28;45539;-63
2022/07/16 04:06:09;;;;;;;;;4.00;4.00;;;;;21.41;40.30;101716.38;5079123;28;45556;-62
2022/07/16 04:08:35;;;;;;;;;3.33;3.33;;;;;21.32;40.49;101701.28;5078568;27;46164;-61
2022/07/16 04:11:01;;;;;;;;;4.33;4.00;;;;;21.37;40.54;101720.50;5078634;27;45481;-61
2022/07/16 04:13:26;;;;;;;;;4.00;4.00;;;;;21.42;40.67;101739.69;5078940;28;45372;-62
2022/07/16 04:15:52;;;;;;;;;4.00;4.00;;;;;21.40;40.40;101740.91;5060369;28;45640;-62
2022/07/16 04:18:17;;;;;;;;;4.67;4.67;;;;;21.31;40.74;101725.84;5078617;28;47428;-63
2022/07/16 04:20:42;;;;;;;;;4.00;2.67;;;;;21.36;40.68;101740.44;5078875;28;45395;-64
2022/07/16 04:23:08;;;;;;;;;4.67;4.67;;;;;20.94;40.75;101682.50;5060407;28;45416;-65
2022/07/16 04:25:33;;;;;;;;;8.00;4.67;;;;;21.30;40.50;101738.53;5078700;28;45293;-62
2022/07/16 04:27:59;;;;;;;;;6.67;5.00;;;;;21.30;40.84;101741.22;5078125;28;47411;-62
2022/07/16 04:30:24;;;;;;;;;6.33;4.00;;;;;21.23;41.29;101730.31;5078602;27;45399;-62
2022/07/16 04:32:50;;;;;;;;;6.67;4.67;;;;;21.36;41.02;101753.16;5078473;28;45353;-62
2022/07/16 04:35:16;;;;;;;;;7.33;5.00;;;;;21.36;40.80;101756.69;5078629;28;45383;-62
2022/07/16 04:37:43;;;;;;;;;6.67;5.00;;;;;21.28;41.02;101737.03;5078283;27;47666;-63
2022/07/16 04:40:10;;;;;;;;;5.00;4.00;;;;;21.29;40.76;101742.25;5078207;28;45433;-62
2022/07/16 04:42:37;;;;;;;;;4.67;4.67;;;;;21.16;40.98;101728.53;5078096;27;45340;-63
2022/07/16 04:45:03;;;;;;;;;4.00;4.00;;;;;21.23;41.43;101757.34;5059864;28;45467;-62
2022/07/16 04:47:28;;;;;;;;;4.67;4.67;;;;;21.00;41.61;101717.94;5077739;28;47758;-62
2022/07/16 04:49:53;;;;;;;;;7.00;7.00;;;;;21.07;41.50;101745.91;5077676;28;45324;-62
2022/07/16 04:52:19;;;;;;;;;4.67;4.67;;;;;21.03;42.10;101755.44;5078240;27;45484;-62
2022/07/16 04:54:44;;;;;;;;;5.33;4.00;;;;;21.07;41.92;101765.66;5060070;28;45355;-62
2022/07/16 04:57:09;;;;;;;;;5.00;4.00;;;;;21.10;41.91;101768.00;5077954;27;47469;-63
2022/07/16 04:59:35;;;;;;;;;3.67;3.67;;;;;21.13;41.72;101761.38;5077904;28;45588;-62
2022/07/16 05:04:44;;;;;;;;;5.33;5.00;;;;;21.15;41.64;101770.13;5062678;28;45394;-61
2022/07/16 05:07:10;;;;;;;;;5.00;4.00;;;;;21.00;42.17;101744.97;5077428;27;46605;-63
2022/07/16 05:09:35;;;;;;;;;3.33;3.33;;;;;20.70;41.82;101688.25;5077795;27;45408;-63
2022/07/16 05:12:01;;;;;;;;;5.33;5.00;;;;;21.21;41.68;101772.06;5077057;28;45428;-62
2022/07/16 05:14:26;;;;;;;;;6.67;6.67;;;;;21.20;42.03;101770.38;5059624;28;45228;-65
2022/07/16 05:16:52;;;;;;;;;6.00;6.00;;;;;21.08;42.17;101742.16;5077621;28;45697;-62
2022/07/16 05:19:17;;;;;;;;;5.67;5.67;;;;;21.22;42.21;101761.09;5077783;27;47019;-62
2022/07/16 05:21:42;;;;;;;;;7.00;7.00;;;;;21.24;42.02;101758.22;5077985;28;45373;-62
2022/07/16 05:24:08;;;;;;;;;6.00;6.00;;;;;21.19;42.19;101747.06;5077729;28;45249;-64
2022/07/16 05:26:33;;;;;;;;;6.33;4.00;;;;;21.19;41.92;101756.03;5059005;28;45343;-62
2022/07/16 05:28:58;;;;;;;;;7.00;5.33;;;;;21.05;42.22;101740.69;5077407;27;46053;-63
2022/07/16 05:31:24;;;;;;;;;4.67;4.67;;;;;21.10;42.33;101734.72;5077595;27;45384;-63
2022/07/16 05:33:49;;;;;;;;;3.00;3.00;;;;;21.15;42.21;101759.31;5078044;28;45495;-62
2022/07/16 05:36:14;;;;;;;;;4.67;4.33;;;;;21.06;42.38;101738.81;5058900;28;46445;-63
2022/07/16 05:38:40;;;;;;;;;7.67;7.67;;;;;21.11;42.58;101752.59;5077646;28;45312;-62
2022/07/16 05:41:05;;;;;;;;;7.00;6.00;;;;;21.15;42.50;101764.72;5059526;28;45852;-63
2022/07/16 05:43:31;;;;;;;;;7.00;7.00;;;;;21.14;42.61;101746.81;5077739;28;45469;-63
2022/07/16 05:45:56;;;;;;;;;4.33;4.33;;;;;21.26;42.25;101769.69;5077275;27;46583;-63
2022/07/16 05:48:22;;;;;;;;;7.33;5.00;;;;;21.20;42.32;101740.63;5077121;28;45557;-63
2022/07/16 05:50:47;;;;;;;;;7.00;6.00;;;;;21.29;42.34;101760.34;5058887;28;45317;-63
2022/07/16 05:53:12;;;;;;;;;7.33;6.67;;;;;21.29;42.19;101776.59;5077698;27;45329;-63
2022/07/16 05:55:37;;;;;;;;;5.00;5.00;;;;;21.31;42.41;101775.34;5077137;28;46520;-63
2022/07/16 05:58:03;;;;;;;;;6.00;6.00;;;;;21.34;42.23;101791.22;5077265;28;45319;-61
2022/07/16 06:00:29;;;;;;;;;5.00;5.00;;;;;21.27;42.51;101763.25;5058791;28;45433;-62
2022/07/16 06:02:54;;;;;;;;;4.33;4.33;;;;;21.33;42.18;101770.59;5059481;28;45481;-63
2022/07/16 06:05:19;;;;;;;;;5.00;5.00;;;;;21.49;42.24;101774.94;5058908;28;47547;-62
2022/07/16 06:07:45;;;;;;;;;7.67;7.33;;;;;21.80;41.95;101788.19;5077181;28;45552;-62
2022/07/16 06:10:10;;;;;;;;;4.00;4.00;;;;;22.16;41.04;101793.56;5077365;28;45365;-62
2022/07/16 06:12:35;;;;;;;;;5.00;4.33;;;;;22.52;40.48;101801.59;5077411;28;45472;-64
2022/07/16 06:15:01;;;;;;;;;5.33;5.33;;;;;22.84;39.78;101778.50;5077025;28;45672;-62
2022/07/16 06:17:26;;;;;;;;;6.33;4.67;;;;;23.20;38.81;101789.09;5076793;28;45282;-63
2022/07/16 06:19:51;;;;;;;;;6.00;5.00;;;;;23.60;37.93;101791.97;5077145;28;45449;-63
2022/07/16 06:22:17;;;;;;;;;8.00;6.00;;;;;23.88;37.41;101798.13;5077404;28;45194;-63
2022/07/16 06:24:42;;;;;;;;;5.33;5.33;;;;;24.21;37.11;101810.88;5079708;28;46540;-63
2022/07/16 06:27:08;;;;;;;;;4.00;4.00;;;;;24.50;36.47;101802.38;5062370;28;45197;-63
2022/07/16 06:29:33;;;;;;;;;6.00;6.00;;;;;24.64;36.14;101791.50;5080642;27;45161;-63
2022/07/16 06:31:58;;;;;;;;;6.33;6.33;;;;;24.92;35.37;101811.09;5080741;28;45451;-63
2022/07/16 06:34:24;;;;;;;;;6.00;6.00;;;;;24.95;35.00;101799.78;5080165;28;54737;-63
2022/07/16 06:36:49;;;;;;;;;3.00;3.00;;;;;25.27;35.19;101818.97;5061832;28;46383;-63
2022/07/16 06:39:14;;;;;;;;;7.00;6.00;;;;;25.55;34.71;101814.03;5080400;27;45331;-63
2022/07/16 06:41:40;;;;;;;;;6.33;6.33;;;;;25.75;34.44;101820.25;5080615;28;45327;-63
2022/07/16 06:44:06;;;;;;;;;5.00;5.00;;;;;25.96;33.41;101819.06;5080223;27;46265;-62
2022/07/16 06:46:32;;;;;;;;;5.00;5.00;;;;;26.14;33.64;101817.47;5079774;28;45465;-62
2022/07/16 06:48:57;;;;;;;;;7.67;5.00;;;;;26.30;33.21;101815.03;5080102;28;45378;-62
2022/07/16 06:51:23;;;;;;;;;3.00;2.33;;;;;26.50;32.43;101825.81;5062031;28;45501;-62
2022/07/16 06:53:48;;;;;;;;;4.33;4.33;;;;;26.68;32.56;101828.59;5061628;28;47926;-63
2022/07/16 06:56:14;;;;;;;;;7.00;6.00;;;;;26.89;31.70;101837.41;5061707;28;45564;-63
2022/07/16 06:58:39;;;;;;;;;5.67;5.33;;;;;27.04;31.84;101837.09;5080034;27;45641;-63
2022/07/16 07:01:05;;;;;;;;;5.00;5.00;;;;;27.16;31.45;101846.16;5080028;27;45316;-64
2022/07/16 07:03:30;;;;;;;;;5.00;5.00;;;;;27.22;31.41;101845.25;5079707;28;45481;-62
2022/07/16 07:05:56;;;;;;;;;4.00;4.00;;;;;27.17;31.04;101820.53;5079719;27;45263;-64
2022/07/16 07:08:21;;;;;;;;;4.00;4.00;;;;;27.33;31.14;101819.94;5079939;28;45447;-62
2022/07/16 07:10:47;;;;;;;;;2.67;2.67;;;;;27.19;30.17;101802.03;5080182;27;45245;-62
2022/07/16 07:13:12;;;;;;;;;6.00;5.00;;;;;27.50;30.32;101842.00;5079479;28;45275;-64
2022/07/16 07:15:37;;;;;;;;;5.33;5.00;;;;;27.56;30.49;101847.34;5079846;28;45387;-62
2022/07/16 07:18:03;;;;;;;;;4.33;4.33;;;;;27.54;30.42;101826.81;5079396;28;45197;-63
2022/07/16 07:20:29;;;;;;;;;3.67;3.67;;;;;27.68;30.15;101832.97;5061441;27;45429;-62
2022/07/16 07:22:55;;;;;;;;;3.00;3.00;;;;;27.85;29.65;101833.97;5079524;28;48042;-62
2022/07/16 07:25:20;;;;;;;;;8.00;4.33;;;;;27.95;29.75;101836.97;5079289;27;45245;-62
2022/07/16 07:27:46;;;;;;;;;6.00;6.00;;;;;28.02;29.87;101836.88;5079414;27;45307;-64
2022/07/16 07:30:11;;;;;;;;;6.33;6.33;;;;;28.10;29.32;101837.38;5061533;28;45236;-66
2022/07/16 07:32:37;;;;;;;;;5.67;4.00;;;;;28.16;29.78;101844.63;5079543;27;46391;-66
2022/07/16 07:35:03;;;;;;;;;3.00;3.00;;;;;28.18;28.50;101839.75;5078760;27;45339;-63
2022/07/16 07:37:29;;;;;;;;;4.00;4.00;;;;;28.20;29.09;101834.06;5079349;28;45233;-64
2022/07/16 07:39:54;;;;;;;;;4.00;4.00;;;;;28.36;28.37;101838.06;5060302;28;45653;-63
2022/07/16 07:42:20;;;;;;;;;6.33;5.00;;;;;28.39;28.53;101854.81;5060705;28;48229;-63
2022/07/16 07:44:45;;;;;;;;;4.67;4.67;;;;;28.53;28.90;101851.88;5079182;28;45424;-63
2022/07/16 07:47:11;;;;;;;;;5.00;5.00;;;;;28.57;28.22;101833.91;5078997;27;45561;-62
2022/07/16 07:49:36;;;;;;;;;4.67;4.67;;;;;28.52;27.81;101840.09;5079333;27;45529;-63
2022/07/16 07:52:02;;;;;;;;;8.00;5.67;;;;;28.67;28.47;101837.72;5078762;28;46700;-62
2022/07/16 07:54:27;;;;;;;;;4.00;4.00;;;;;28.84;27.93;101837.84;5078665;27;45524;-62
2022/07/16 07:56:53;;;;;;;;;7.00;5.33;;;;;29.08;27.66;101845.00;5078676;27;45294;-63
2022/07/16 07:59:18;;;;;;;;;6.00;5.00;;;;;29.08;27.14;101825.00;5079057;28;45516;-63
2022/07/16 08:01:44;;;;;;;;;6.33;4.67;;;;;29.19;27.07;101837.81;5078823;27;46266;-64
2022/07/16 08:04:09;;;;;;;;;4.00;4.00;;;;;29.10;27.18;101833.81;5078649;27;45351;-63
2022/07/16 08:06:35;;;;;;;;;4.00;4.00;;;;;29.25;27.79;101849.72;5077940;28;46012;-65
2022/07/16 08:09:01;;;;;;;;;4.00;3.00;;;;;29.21;26.96;101827.44;5077379;28;45541;-64
2022/07/16 08:11:26;;;;;;;;;4.00;4.00;;;;;29.23;26.91;101832.69;5076121;28;47448;-64
2022/07/16 08:13:52;;;;;;;;;5.00;4.00;;;;;29.33;27.02;101855.66;5077540;27;45405;-62
2022/07/16 08:16:17;;;;;;;;;3.67;3.00;;;;;29.46;27.43;101845.53;5078679;28;45320;-62
2022/07/16 08:18:42;;;;;;;;;3.00;3.00;;;;;29.60;27.79;101830.47;5060654;27;45577;-63
2022/07/16 08:21:08;;;;;;;;;4.67;3.00;;;;;29.82;26.45;101856.09;5078370;28;46522;-63
2022/07/16 08:26:17;;;;;;;;;5.00;4.00;;;;;30.08;26.32;101851.16;5078409;27;45370;-63
2022/07/16 08:28:43;;;;;;;;;5.00;4.00;;;;;30.22;26.42;101849.72;5059463;28;45462;-63
2022/07/16 08:31:08;;;;;;;;;4.00;3.00;;;;;30.17;26.11;101849.66;5076152;28;45888;-63
2022/07/16 08:33:34;;;;;;;;;5.67;3.67;;;;;30.22;25.73;101850.56;5076140;28;45362;-63
2022/07/16 08:36:01;;;;;;;;;6.00;4.33;;;;;30.03;25.69;101845.50;5077455;28;45412;-62
2022/07/16 08:38:26;;;;;;;;;5.00;5.00;;;;;30.14;25.97;101844.66;5078198;27;45274;-62
2022/07/16 08:40:55;;;;;;;;;2.67;2.67;;;;;30.40;25.38;101843.16;5058961;28;46202;-64
2022/07/16 08:43:21;;;;;;;;;3.00;3.00;;;;;30.61;25.65;101844.31;5076914;28;45479;-63
2022/07/16 08:45:47;;;;;;;;;5.33;4.00;;;;;30.68;25.55;101848.59;5076541;27;45490;-64
2022/07/16 08:48:13;;;;;;;;;4.67;4.67;;;;;30.95;25.59;101848.72;5075756;28;45338;-62
2022/07/16 08:50:41;;;;;;;;;4.33;4.00;;;;;31.07;24.89;101830.22;5076670;28;46409;-63
2022/07/16 08:53:07;;;;;;;;;3.67;3.67;;;;;31.28;24.63;101833.25;5076884;28;45525;-63
2022/07/16 08:55:36;;;;;;;;;5.67;3.00;;;;;31.24;24.45;101791.75;5077293;28;45318;-63
2022/07/16 08:58:02;;;;;;;;;4.33;4.33;;;;;31.82;23.63;101850.66;5077900;27;45188;-62
2022/07/16 09:00:28;;;;;;;;;4.00;4.00;;;;;31.78;24.27;101802.78;5077759;27;46685;-63
2022/07/16 09:02:54;;;;;;;;;3.67;3.00;;;;;32.12;23.75;101803.38;5059594;28;45391;-63
2022/07/16 09:05:20;;;;;;;;;5.00;2.67;;;;;32.64;22.67;101842.06;5077865;28;45427;-67
2022/07/16 09:07:45;;;;;;;;;5.00;4.00;;;;;32.02;22.28;101729.00;5077674;28;45497;-63
2022/07/16 09:10:11;;;;;;;;;4.00;4.00;;;;;32.59;22.18;101813.66;5059299;28;46231;-64
2022/07/16 09:12:46;;;;;;;;;4.67;4.67;;;;;32.77;22.12;101854.53;5077278;28;45292;-67
2022/07/16 09:15:23;;;;;;;;;3.00;3.00;;;;;32.59;21.87;101842.03;5077610;27;45502;-64
2022/07/16 09:18:13;;;;;;;;;3.67;3.67;;;;;32.89;21.92;101855.22;5077773;28;45604;-63
2022/07/16 09:20:47;;;;;;;;;4.00;4.00;;;;;31.70;21.99;101644.59;5077169;27;47016;-65
2022/07/16 09:23:20;;;;;;;;;5.33;3.67;;;;;33.28;21.14;101854.84;5077492;28;45295;-63
2022/07/16 09:25:47;;;;;;;;;4.00;4.00;;;;;33.42;21.55;101861.53;5077472;27;45194;-64
2022/07/16 09:28:13;;;;;;;;;4.00;3.00;;;;;33.60;21.44;101862.97;5077590;28;45482;-64
2022/07/16 09:30:38;;;;;;;;;4.00;4.00;;;;;33.86;20.80;101850.97;5077188;27;45627;-64
2022/07/16 09:33:13;;;;;;;;;3.33;3.33;;;;;33.36;20.24;101777.16;5077426;28;45405;-64
2022/07/16 09:35:39;;;;;;;;;7.00;4.67;;;;;33.88;21.04;101822.28;5077593;27;45300;-65
2022/07/16 09:38:08;;;;;;;;;6.00;4.00;;;;;34.25;19.96;101849.63;5077246;27;45565;-64
2022/07/16 09:40:46;;;;;;;;;6.00;4.33;;;;;34.67;19.56;101850.16;5058712;28;48699;-66
2022/07/16 09:43:12;;;;;;;;;4.00;4.00;;;;;34.81;19.72;101849.56;5077054;28;45577;-64
2022/07/16 09:45:41;;;;;;;;;6.00;6.00;;;;;34.86;19.22;101847.66;5077150;28;45448;-64
2022/07/16 09:48:27;;;;;;;;;4.00;4.00;;;;;35.04;19.24;101848.97;5077090;28;45344;-64
2022/07/16 09:50:56;;;;;;;;;5.00;5.00;;;;;35.20;19.11;101817.41;5076454;28;46604;-64
2022/07/16 09:53:26;;;;;;;;;4.33;3.67;;;;;35.04;18.74;101811.13;5058918;28;45421;-64
2022/07/16 09:55:55;;;;;;;;;3.00;3.00;;;;;34.62;18.72;101841.88;5077103;27;45318;-64
2022/07/16 09:58:20;;;;;;;;;4.00;4.00;;;;;34.11;19.31;101847.41;5077028;28;45470;-64
2022/07/16 10:00:45;;;;;;;;;4.33;4.33;;;;;33.55;20.00;101846.44;5076758;28;46651;-65
2022/07/16 10:03:11;;;;;;;;;4.33;3.33;;;;;32.91;20.67;101784.16;5077227;28;45313;-63
2022/07/16 10:05:37;;;;;;;;;3.67;3.67;;;;;32.94;20.90;101793.78;5077200;28;45326;-64
2022/07/16 10:08:02;;;;;;;;;4.00;4.00;;;;;33.02;20.48;101861.31;5058435;28;45297;-64
2022/07/16 10:10:28;;;;;;;;;5.67;3.33;;;;;32.48;21.57;101829.28;5076822;28;47101;-63
2022/07/16 10:12:53;;;;;;;;;5.00;5.00;;;;;32.32;21.80;101847.59;5076698;28;45276;-64
2022/07/16 10:15:20;;;;;;;;;4.00;4.00;;;;;32.11;22.23;101864.16;5077020;28;45324;-63
2022/07/16 10:17:45;;;;;;;;;4.00;4.00;;;;;31.84;21.60;101865.00;5077120;27;45400;-63
2022/07/16 10:20:17;;;;;;;;;3.00;3.00;;;;;31.41;22.58;101854.84;5076689;28;46877;-65
2022/07/16 10:22:48;;;;;;;;;5.00;5.00;;;;;31.04;23.04;101868.34;5058680;28;45511;-64
2022/07/16 10:25:17;;;;;;;;;5.00;4.00;;;;;30.76;23.85;101861.06;5058497;28;45596;-65
2022/07/16 10:27:43;;;;;;;;;5.00;5.00;;;;;29.04;24.16;101604.78;5076868;28;45544;-64
2022/07/16 10:30:22;;;;;;;;;4.00;4.00;;;;;30.44;24.17;101855.34;5076379;28;46530;-65
2022/07/16 10:33:00;;;;;;;;;5.00;3.67;;;;;30.30;23.10;101857.56;5076327;28;45367;-64
2022/07/16 10:35:29;;;;;;;;;7.00;7.00;;;;;30.13;24.27;101854.81;5058639;28;45328;-65
2022/07/16 10:38:18;;;;;;;;;8.67;6.67;;;;;30.04;23.83;101849.97;5076990;28;45477;-63
2022/07/16 10:40:44;;;;;;;;;6.00;5.00;;;;;29.89;24.29;101840.34;5076417;28;46513;-65
2022/07/16 10:43:16;;;;;;;;;6.00;4.00;;;;;29.78;24.16;101841.22;5058142;28;46109;-64
2022/07/16 10:46:00;;;;;;;;;6.00;5.00;;;;;29.47;24.86;101830.75;5076228;28;45251;-63
2022/07/16 10:48:28;;;;;;;;;5.00;5.00;;;;;28.02;24.99;101626.38;5058252;28;45324;-64
2022/07/16 10:51:18;;;;;;;;;9.67;9.67;;;;;29.31;25.51;101855.06;5057958;27;48742;-65
2022/07/16 10:53:56;;;;;;;;;6.00;6.00;;;;;29.19;24.90;101861.63;5076079;28;45392;-63
2022/07/16 10:56:31;;;;;;;;;5.00;5.00;;;;;28.97;25.25;101850.47;5076514;27;45473;-65
2022/07/16 10:58:57;;;;;;;;;5.67;5.67;;;;;28.86;25.57;101848.59;5058281;28;45526;-66
2022/07/16 11:01:22;;;;;;;;;4.00;4.00;;;;;28.73;25.61;101847.72;5076179;27;47131;-64
2022/07/16 11:03:51;;;;;;;;;5.00;5.00;;;;;28.55;25.25;101834.16;5076242;28;45421;-64
2022/07/16 11:06:20;;;;;;;;;6.00;4.67;;;;;28.54;25.76;101842.59;5076440;28;45562;-65
2022/07/16 11:08:46;;;;;;;;;2.67;2.67;;;;;28.45;24.99;101850.34;5058264;28;45555;-64
2022/07/16 11:11:12;;;;;;;;;5.33;5.33;;;;;27.83;25.20;101763.16;5077974;28;46891;-64
2022/07/16 11:13:37;;;;;;;;;4.67;4.67;;;;;28.34;25.31;101853.88;5079759;27;45486;-66
2022/07/16 11:16:09;;;;;;;;;4.00;4.00;;;;;27.92;25.81;101812.00;5079714;28;45200;-64
2022/07/16 11:18:39;;;;;;;;;5.00;5.00;;;;;27.85;25.74;101823.06;5079906;28;45375;-65
2022/07/16 11:21:06;;;;;;;;;5.00;4.00;;;;;27.80;26.03;101836.56;5079559;28;45698;-65
2022/07/16 11:23:49;;;;;;;;;4.00;4.00;;;;;27.87;25.87;101837.31;5061089;28;46487;-63
2022/07/16 11:26:15;;;;;;;;;2.67;2.67;;;;;27.91;25.58;101843.97;5061241;28;45292;-63
2022/07/16 11:28:52;;;;;;;;;7.33;7.33;;;;;27.44;25.99;101761.81;5079469;27;45398;-63